Time;durP1;ratioP1;P1;durP2;ratioP2;P2;SDS_P1;SDS_P2;PMS_P1;PMS_P2;Temp;Humidity;BMP_temperature;BMP_pressure;BME280_temperature;BME280_humidity;BME280_pressure;Samples;Min_cycle;Max_cycle;Signal;HPM_P1;HPM_P2
2023/08/08 00:01:11;;;;;;;4.55;3.10;;;13.80;99.90;;;;;;5052594;28;20029;-70
2023/08/08 00:03:36;;;;;;;4.78;2.50;;;13.80;99.90;;;;;;5053142;28;20108;-71
2023/08/08 00:06:02;;;;;;;6.63;3.78;;;13.70;99.90;;;;;;5052693;28;20045;-72
2023/08/08 00:08:28;;;;;;;2.83;2.30;;;13.80;99.90;;;;;;5052623;28;20037;-71
2023/08/08 00:10:53;;;;;;;3.25;2.50;;;13.80;99.90;;;;;;5052399;28;20044;-70
2023/08/08 00:13:19;;;;;;;5.13;2.53;;;13.80;99.90;;;;;;5052977;28;20562;-72
2023/08/08 00:15:45;;;;;;;4.88;2.90;;;13.80;99.90;;;;;;5052535;28;20048;-72
2023/08/08 00:18:11;;;;;;;4.38;2.58;;;13.80;99.90;;;;;;5052327;28;20060;-71
2023/08/08 00:20:37;;;;;;;3.95;2.42;;;13.80;99.90;;;;;;5034602;28;20044;-71
2023/08/08 00:23:03;;;;;;;4.45;2.83;;;13.80;99.90;;;;;;5052733;28;20549;-72
2023/08/08 00:25:28;;;;;;;3.65;2.55;;;13.90;99.90;;;;;;5052424;28;20099;-71
2023/08/08 00:27:54;;;;;;;4.82;3.17;;;13.90;99.90;;;;;;5034422;28;20067;-74
2023/08/08 00:30:20;;;;;;;3.05;2.75;;;13.90;99.90;;;;;;5052441;28;20041;-73
2023/08/08 00:32:45;;;;;;;5.50;3.28;;;13.90;99.90;;;;;;5052418;28;20057;-71
2023/08/08 00:35:11;;;;;;;3.10;2.78;;;14.00;99.90;;;;;;5052554;28;20136;-75
2023/08/08 00:37:37;;;;;;;4.95;3.10;;;14.60;99.90;;;;;;5052282;28;20356;-72
2023/08/08 00:40:03;;;;;;;4.40;2.63;;;13.90;99.90;;;;;;5052305;28;20143;-74
2023/08/08 00:42:29;;;;;;;4.13;2.50;;;13.90;99.90;;;;;;5052394;28;20476;-71
2023/08/08 00:45:01;;;;;;;3.95;2.50;;;14.00;99.90;;;;;;5035006;28;20171;-71
2023/08/08 00:47:27;;;;;;;3.50;3.20;;;13.90;99.90;;;;;;5052620;28;20488;-73
2023/08/08 00:49:53;;;;;;;2.90;2.60;;;13.90;99.90;;;;;;5034384;28;20049;-70
2023/08/08 00:52:19;;;;;;;3.85;3.03;;;13.90;99.90;;;;;;5052292;28;20124;-73
2023/08/08 00:54:45;;;;;;;4.53;2.63;;;13.90;99.90;;;;;;5034826;28;20045;-74
2023/08/08 00:57:11;;;;;;;5.00;2.80;;;13.80;99.90;;;;;;5052153;28;20077;-70
2023/08/08 00:59:37;;;;;;;3.95;2.90;;;13.80;99.90;;;;;;5051977;28;20120;-71
2023/08/08 01:02:03;;;;;;;6.70;2.90;;;13.80;99.90;;;;;;5034732;28;20092;-74
2023/08/08 01:04:29;;;;;;;4.10;3.22;;;13.70;99.90;;;;;;5001422;28;20044;-70
2023/08/08 01:07:31;;;;;;;5.88;2.83;;;13.70;99.90;;;;;;5052184;28;20135;-71
2023/08/08 01:10:14;;;;;;;3.97;3.00;;;13.70;99.90;;;;;;5056159;28;20128;-74
2023/08/08 01:12:48;;;;;;;4.35;3.13;;;13.70;99.90;;;;;;5055786;28;20041;-73
2023/08/08 01:15:15;;;;;;;3.50;2.58;;;13.60;99.90;;;;;;5055816;28;20045;-70
2023/08/08 01:17:42;;;;;;;6.75;2.95;;;13.60;99.90;;;;;;5055417;28;20052;-71
2023/08/08 01:20:10;;;;;;;3.97;2.83;;;13.60;99.90;;;;;;5055991;28;20211;-73
2023/08/08 01:23:14;;;;;;;4.97;2.88;;;13.60;99.90;;;;;;5037984;28;20405;-70
2023/08/08 01:25:41;;;;;;;5.88;3.10;;;13.60;99.90;;;;;;5054230;28;20057;-71
2023/08/08 01:28:07;;;;;;;3.22;2.92;;;13.50;99.90;;;;;;5055472;28;20045;-72
2023/08/08 01:30:33;;;;;;;4.53;3.08;;;13.60;99.90;;;;;;5055325;28;20045;-73
2023/08/08 01:32:59;;;;;;;7.28;3.33;;;13.50;99.90;;;;;;5055462;28;20124;-72
2023/08/08 01:35:29;;;;;;;4.18;3.28;;;13.50;99.90;;;;;;5055088;28;20509;-73
2023/08/08 01:38:02;;;;;;;5.13;3.20;;;13.50;99.90;;;;;;5055130;28;20106;-73
2023/08/08 01:40:29;;;;;;;3.55;2.95;;;13.50;99.90;;;;;;5037802;28;20508;-71
2023/08/08 01:42:56;;;;;;;5.72;3.30;;;13.40;99.90;;;;;;5055266;28;20080;-71
2023/08/08 01:45:24;;;;;;;5.25;3.33;;;13.40;99.90;;;;;;5055211;28;20044;-71
2023/08/08 01:47:51;;;;;;;4.18;2.92;;;13.40;99.90;;;;;;5037527;28;20053;-74
2023/08/08 01:50:17;;;;;;;3.70;3.38;;;13.40;99.90;;;;;;5037558;28;20044;-71
2023/08/08 01:52:42;;;;;;;4.90;3.65;;;13.30;99.90;;;;;;5054968;28;20190;-73
2023/08/08 01:55:08;;;;;;;3.80;3.20;;;13.40;99.90;;;;;;5021008;28;20053;-72
2023/08/08 01:57:34;;;;;;;6.68;3.75;;;13.40;99.90;;;;;;5055506;28;20085;-73
2023/08/08 02:00:00;;;;;;;4.82;3.10;;;13.40;99.90;;;;;;5037291;28;20081;-74
2023/08/08 02:02:26;;;;;;;4.72;3.85;;;13.40;99.90;;;;;;5055459;28;20450;-73
2023/08/08 02:04:52;;;;;;;3.60;3.30;;;13.40;99.90;;;;;;5054849;28;20111;-71
2023/08/08 02:07:17;;;;;;;5.20;3.30;;;13.40;99.90;;;;;;5037861;28;20416;-72
2023/08/08 02:09:45;;;;;;;6.07;4.20;;;13.50;99.90;;;;;;5054615;28;20401;-72
2023/08/08 02:12:11;;;;;;;4.82;3.38;;;13.50;99.90;;;;;;5054699;28;20057;-72
2023/08/08 02:14:37;;;;;;;4.38;3.30;;;13.50;99.90;;;;;;5037333;28;20541;-74
2023/08/08 02:17:03;;;;;;;5.47;3.63;;;13.50;99.90;;;;;;5036763;28;20045;-73
2023/08/08 02:19:30;;;;;;;7.38;3.63;;;13.50;99.90;;;;;;5054283;28;20112;-71
2023/08/08 02:21:55;;;;;;;4.65;3.10;;;13.50;99.90;;;;;;5054679;28;20196;-73
2023/08/08 02:24:21;;;;;;;5.25;3.85;;;13.60;99.90;;;;;;5054446;28;20099;-75
2023/08/08 02:26:47;;;;;;;4.32;3.15;;;13.50;99.90;;;;;;5054767;28;20048;-72
2023/08/08 02:29:12;;;;;;;4.15;3.08;;;13.60;99.90;;;;;;5054232;28;20052;-71
2023/08/08 02:31:38;;;;;;;8.93;3.67;;;13.60;99.90;;;;;;5054272;28;20076;-72
2023/08/08 02:34:04;;;;;;;6.40;3.78;;;13.60;99.90;;;;;;5019871;28;20053;-71
2023/08/08 02:36:29;;;;;;;7.20;4.00;;;13.50;99.90;;;;;;5054564;28;20060;-72
2023/08/08 02:38:55;;;;;;;5.75;3.70;;;13.60;99.90;;;;;;5054776;28;20060;-73
2023/08/08 02:41:21;;;;;;;6.07;3.95;;;13.70;99.90;;;;;;5054099;28;20454;-72
2023/08/08 02:43:47;;;;;;;5.45;3.92;;;13.70;99.90;;;;;;5036480;28;20063;-71
2023/08/08 02:46:12;;;;;;;7.70;3.70;;;13.60;99.90;;;;;;5054064;28;20072;-73
2023/08/08 02:48:38;;;;;;;3.75;3.35;;;13.70;99.90;;;;;;5036093;28;20075;-71
2023/08/08 02:51:04;;;;;;;5.93;3.92;;;13.70;99.90;;;;;;5053713;28;20041;-71
2023/08/08 02:53:29;;;;;;;5.35;3.78;;;13.70;99.90;;;;;;5036064;28;20060;-71
2023/08/08 02:55:55;;;;;;;3.90;3.13;;;13.70;99.90;;;;;;5036190;28;20056;-73
2023/08/08 02:58:21;;;;;;;7.10;3.17;;;13.60;99.90;;;;;;5053510;28;20052;-74
2023/08/08 03:00:46;;;;;;;5.47;3.53;;;13.60;99.90;;;;;;5053730;28;20122;-72
2023/08/08 03:03:12;;;;;;;8.98;3.25;;;13.60;99.90;;;;;;5036206;28;20048;-75
2023/08/08 03:05:38;;;;;;;7.57;3.92;;;13.60;99.90;;;;;;5036611;28;20449;-75
2023/08/08 03:08:04;;;;;;;4.97;3.45;;;13.70;99.90;;;;;;5053607;28;20110;-71
2023/08/08 03:10:29;;;;;;;3.47;2.78;;;13.70;99.90;;;;;;5053884;28;20048;-72
2023/08/08 03:12:55;;;;;;;7.72;3.00;;;13.70;99.90;;;;;;5053775;28;20351;-73
2023/08/08 03:15:21;;;;;;;6.15;3.08;;;13.70;99.90;;;;;;5053689;28;20077;-71
2023/08/08 03:17:46;;;;;;;4.20;3.70;;;13.70;99.90;;;;;;5053688;28;20041;-72
2023/08/08 03:20:12;;;;;;;4.15;3.17;;;13.60;99.90;;;;;;5053314;28;20090;-75
2023/08/08 03:22:38;;;;;;;5.50;3.30;;;13.60;99.90;;;;;;5053414;28;20053;-71
2023/08/08 03:25:04;;;;;;;3.85;2.92;;;13.60;99.90;;;;;;5053243;28;20426;-71
2023/08/08 03:27:30;;;;;;;6.82;3.53;;;13.60;99.90;;;;;;5053225;28;20045;-73
2023/08/08 03:29:56;;;;;;;5.80;3.58;;;13.60;99.90;;;;;;5052493;28;20053;-73
2023/08/08 03:32:22;;;;;;;4.13;3.25;;;13.50;99.90;;;;;;5035431;28;20151;-71
2023/08/08 03:34:48;;;;;;;8.10;3.22;;;13.60;99.90;;;;;;5052912;28;20128;-74
2023/08/08 03:37:14;;;;;;;6.75;3.50;;;13.60;99.90;;;;;;5053374;28;20084;-71
2023/08/08 03:39:40;;;;;;;7.30;4.05;;;13.60;99.90;;;;;;5035384;28;20523;-72
2023/08/08 03:42:06;;;;;;;4.93;3.70;;;13.60;99.90;;;;;;5035362;28;20131;-71
2023/08/08 03:44:31;;;;;;;4.05;3.17;;;13.50;99.90;;;;;;5052903;28;20047;-73
2023/08/08 03:46:57;;;;;;;5.10;3.40;;;13.50;99.90;;;;;;5052743;28;20041;-74
2023/08/08 03:49:23;;;;;;;3.10;2.80;;;13.50;99.90;;;;;;5019295;28;20047;-74
2023/08/08 03:51:48;;;;;;;4.40;2.92;;;13.50;99.90;;;;;;5052794;28;20542;-72
2023/08/08 03:54:15;;;;;;;3.60;2.30;;;13.50;99.90;;;;;;5052584;28;20056;-70
2023/08/08 03:56:41;;;;;;;6.07;2.65;;;13.50;99.90;;;;;;5052665;28;20191;-71
2023/08/08 03:59:07;;;;;;;5.97;2.45;;;13.50;99.90;;;;;;5052656;28;20068;-73
2023/08/08 04:01:32;;;;;;;4.75;2.80;;;13.60;99.90;;;;;;5052709;28;20051;-72
2023/08/08 04:03:58;;;;;;;4.95;3.05;;;13.50;99.90;;;;;;5052742;28;20123;-71
2023/08/08 04:06:24;;;;;;;8.35;3.22;;;13.60;99.90;;;;;;5034773;28;20555;-74
2023/08/08 04:08:50;;;;;;;5.35;3.58;;;13.60;99.90;;;;;;5052417;28;20094;-73
2023/08/08 04:11:16;;;;;;;4.65;2.90;;;13.60;99.90;;;;;;5034545;28;20044;-73
2023/08/08 04:13:42;;;;;;;5.32;2.85;;;13.60;99.90;;;;;;5018955;28;20052;-70
2023/08/08 04:16:07;;;;;;;4.72;2.78;;;13.60;99.90;;;;;;5052485;28;20049;-72
2023/08/08 04:18:33;;;;;;;3.38;2.95;;;13.60;99.90;;;;;;5052345;28;20537;-75
2023/08/08 04:20:59;;;;;;;4.38;2.78;;;13.60;99.90;;;;;;5052434;28;20090;-72
2023/08/08 04:23:25;;;;;;;4.95;2.75;;;13.60;99.90;;;;;;5052204;28;20499;-73
2023/08/08 04:25:52;;;;;;;4.53;2.65;;;13.60;99.90;;;;;;5052350;28;20060;-72
2023/08/08 04:28:18;;;;;;;4.22;2.83;;;13.60;99.90;;;;;;5052810;28;20142;-73
2023/08/08 04:30:44;;;;;;;7.45;3.38;;;13.70;99.90;;;;;;5052245;28;20167;-72
2023/08/08 04:33:10;;;;;;;3.35;2.70;;;13.60;99.90;;;;;;5052248;28;20077;-72
2023/08/08 04:35:35;;;;;;;4.03;3.15;;;13.60;99.90;;;;;;5053120;28;20061;-72
2023/08/08 04:38:01;;;;;;;5.00;3.30;;;13.60;99.90;;;;;;5052506;28;20052;-71
2023/08/08 04:40:27;;;;;;;7.45;3.22;;;13.60;99.90;;;;;;5052149;28;20413;-73
2023/08/08 04:42:53;;;;;;;7.45;3.13;;;13.60;99.90;;;;;;5055528;28;20094;-74
2023/08/08 04:45:20;;;;;;;5.20;3.70;;;13.80;99.90;;;;;;5038193;28;20102;-72
2023/08/08 04:47:46;;;;;;;7.18;3.30;;;13.80;99.90;;;;;;5056065;28;20471;-76
2023/08/08 04:50:12;;;;;;;4.25;3.85;;;13.80;99.90;;;;;;5056426;28;20163;-73
2023/08/08 04:52:38;;;;;;;6.05;3.10;;;13.80;99.90;;;;;;5056499;28;20087;-74
2023/08/08 04:55:04;;;;;;;6.20;3.03;;;13.80;99.90;;;;;;5056017;28;20105;-71
2023/08/08 04:57:29;;;;;;;3.80;3.40;;;13.70;99.90;;;;;;5056405;28;20044;-72
2023/08/08 04:59:56;;;;;;;6.68;3.22;;;13.70;99.90;;;;;;5055976;28;20048;-75
2023/08/08 05:02:22;;;;;;;6.22;3.00;;;13.70;99.90;;;;;;5056324;28;20123;-69
2023/08/08 05:04:47;;;;;;;3.28;2.92;;;13.70;99.90;;;;;;5038168;28;20041;-71
2023/08/08 05:07:13;;;;;;;5.78;3.63;;;13.70;99.90;;;;;;5038494;28;20088;-72
2023/08/08 05:09:39;;;;;;;7.30;3.58;;;13.60;99.90;;;;;;5055747;28;20041;-69
2023/08/08 05:12:05;;;;;;;7.13;2.80;;;13.60;99.90;;;;;;5055887;28;20045;-74
2023/08/08 05:14:30;;;;;;;7.95;3.05;;;13.60;99.90;;;;;;5055732;28;20068;-73
2023/08/08 05:16:56;;;;;;;4.90;2.90;;;13.50;99.90;;;;;;5037912;28;20453;-71
2023/08/08 05:19:22;;;;;;;5.97;3.40;;;13.50;99.90;;;;;;5055630;28;20037;-70
2023/08/08 05:21:47;;;;;;;4.95;2.53;;;13.60;99.90;;;;;;5055549;28;20041;-71
2023/08/08 05:24:13;;;;;;;5.97;2.90;;;13.50;99.90;;;;;;5055526;28;20124;-73
2023/08/08 05:26:39;;;;;;;4.95;3.08;;;13.60;99.90;;;;;;5055470;28;20049;-70
2023/08/08 05:29:04;;;;;;;9.02;3.58;;;13.60;99.90;;;;;;5055550;28;20055;-73
2023/08/08 05:31:32;;;;;;;9.07;3.85;;;13.60;99.90;;;;;;5055480;28;20600;-73
2023/08/08 05:33:58;;;;;;;18.05;6.57;;;13.60;99.90;;;;;;5037621;28;20056;-71
2023/08/08 05:36:24;;;;;;;17.70;6.50;;;13.70;99.90;;;;;;5055235;28;20044;-71
2023/08/08 05:38:49;;;;;;;4.07;2.70;;;13.70;99.90;;;;;;5055209;28;20048;-70
2023/08/08 05:41:15;;;;;;;4.22;2.40;;;13.80;99.90;;;;;;5037758;28;20049;-73
2023/08/08 05:43:41;;;;;;;3.83;2.58;;;13.80;99.90;;;;;;5055777;28;20045;-71
2023/08/08 05:46:06;;;;;;;5.32;2.95;;;13.90;99.90;;;;;;5037507;28;20072;-71
2023/08/08 05:48:32;;;;;;;4.97;2.55;;;14.00;99.90;;;;;;5055590;28;20044;-69
2023/08/08 05:50:58;;;;;;;4.72;2.30;;;14.00;99.90;;;;;;5054952;28;20048;-73
2023/08/08 05:53:24;;;;;;;4.85;2.60;;;14.10;99.90;;;;;;5036742;28;20098;-71
2023/08/08 05:55:50;;;;;;;8.07;2.80;;;14.20;99.90;;;;;;5054872;28;20048;-71
2023/08/08 05:58:16;;;;;;;4.13;2.63;;;14.20;99.90;;;;;;5055332;28;20084;-72
2023/08/08 06:00:42;;;;;;;3.85;2.13;;;14.30;99.90;;;;;;5055404;28;20052;-72
2023/08/08 06:03:08;;;;;;;3.97;2.03;;;14.30;99.90;;;;;;5055200;28;20059;-71
2023/08/08 06:05:34;;;;;;;5.78;2.85;;;14.50;99.90;;;;;;5037318;28;20041;-70
2023/08/08 06:07:59;;;;;;;4.78;2.00;;;14.50;99.90;;;;;;5020903;28;20049;-71
2023/08/08 06:10:25;;;;;;;4.57;2.35;;;14.60;99.90;;;;;;5054566;28;20052;-73
2023/08/08 06:12:51;;;;;;;5.60;2.75;;;14.70;99.90;;;;;;5037116;28;20045;-70
2023/08/08 06:15:17;;;;;;;13.38;2.78;;;14.70;99.90;;;;;;5054485;28;20041;-71
2023/08/08 06:17:43;;;;;;;4.10;2.58;;;14.80;99.90;;;;;;5054436;28;20048;-71
2023/08/08 06:20:12;;;;;;;4.40;2.13;;;14.90;99.90;;;;;;5054473;28;20041;-70
2023/08/08 06:22:38;;;;;;;4.20;2.15;;;15.00;99.90;;;;;;5054452;28;20048;-72
2023/08/08 06:25:04;;;;;;;6.63;2.00;;;15.10;99.90;;;;;;5054361;28;20478;-70
2023/08/08 06:27:30;;;;;;;7.53;2.15;;;15.20;99.90;;;;;;5054892;28;20132;-73
2023/08/08 06:29:56;;;;;;;4.15;2.10;;;15.20;99.90;;;;;;5054488;28;20427;-68
2023/08/08 06:32:22;;;;;;;2.55;1.88;;;15.40;99.90;;;;;;5054316;28;20040;-69
2023/08/08 06:34:48;;;;;;;7.97;2.10;;;15.40;99.90;;;;;;5035942;28;20059;-68
2023/08/08 06:37:13;;;;;;;5.68;2.15;;;15.50;99.90;;;;;;5054167;28;20045;-69
2023/08/08 06:39:40;;;;;;;6.00;1.90;;;15.60;99.90;;;;;;5054110;28;20077;-70
2023/08/08 06:42:06;;;;;;;6.13;2.03;;;15.70;99.90;;;;;;5036714;28;20052;-71
2023/08/08 06:44:43;;;;;;;5.50;2.50;;;15.80;99.90;;;;;;5054321;28;20056;-68
2023/08/08 06:47:08;;;;;;;6.28;2.25;;;15.90;99.90;;;;;;5054114;28;20056;-69
2023/08/08 06:49:34;;;;;;;5.20;1.70;;;16.10;99.90;;;;;;5035806;28;20401;-70
2023/08/08 06:52:00;;;;;;;10.10;2.17;;;16.20;99.90;;;;;;5036165;28;20057;-73
2023/08/08 06:54:28;;;;;;;6.80;1.95;;;16.80;99.90;;;;;;5053862;28;20094;-71
2023/08/08 06:56:56;;;;;;;5.70;2.05;;;17.90;99.90;;;;;;5053851;28;20045;-70
2023/08/08 06:59:22;;;;;;;4.57;1.60;;;19.10;99.90;;;;;;5054222;28;20041;-71
2023/08/08 07:01:48;;;;;;;2.47;1.58;;;20.20;99.90;;;;;;5035820;28;20074;-72
2023/08/08 07:04:14;;;;;;;2.83;1.83;;;20.80;99.90;;;;;;5053188;28;20049;-72
2023/08/08 07:06:40;;;;;;;4.13;1.67;;;21.10;99.90;;;;;;5052874;28;20080;-72
2023/08/08 07:09:10;;;;;;;8.38;1.75;;;21.60;99.90;;;;;;5053576;28;20052;-70
2023/08/08 07:11:36;;;;;;;1.20;1.10;;;21.80;99.90;;;;;;5053802;28;20058;-74
2023/08/08 07:14:01;;;;;;;2.38;1.50;;;22.00;99.90;;;;;;5053374;28;20045;-70
2023/08/08 07:16:27;;;;;;;1.58;1.15;;;22.60;99.90;;;;;;5054089;28;20072;-75
2023/08/08 07:18:53;;;;;;;3.85;1.48;;;22.70;99.90;;;;;;5053757;28;20049;-76
2023/08/08 07:21:18;;;;;;;3.70;1.75;;;23.20;99.90;;;;;;5035253;28;20095;-73
2023/08/08 07:23:44;;;;;;;3.00;1.05;;;23.40;99.90;;;;;;5035701;28;20135;-72
2023/08/08 07:26:15;;;;;;;1.42;1.05;;;23.50;99.40;;;;;;5137454;27;1285244;-76
2023/08/08 07:28:41;;;;;;;1.83;1.23;;;22.90;97.30;;;;;;5138224;27;20046;-69
2023/08/08 07:31:06;;;;;;;3.85;1.27;;;23.40;97.90;;;;;;5151519;27;20047;-72
2023/08/08 07:33:32;;;;;;;4.38;1.23;;;23.00;96.40;;;;;;5154801;27;20794;-70
2023/08/08 07:35:58;;;;;;;3.60;1.27;;;23.40;97.70;;;;;;5147958;27;20081;-73
2023/08/08 07:38:24;;;;;;;2.58;1.10;;;23.50;98.00;;;;;;5148401;27;20050;-73
2023/08/08 07:40:49;;;;;;;2.15;1.00;;;23.50;97.90;;;;;;5129863;27;20075;-70
2023/08/08 07:43:15;;;;;;;2.95;1.00;;;22.70;97.50;;;;;;5136973;27;20043;-71
2023/08/08 07:45:42;;;;;;;3.33;0.95;;;22.40;97.80;;;;;;5139835;27;20039;-70
2023/08/08 07:48:08;;;;;;;1.65;0.80;;;22.00;97.70;;;;;;5144560;27;20058;-70
2023/08/08 07:50:33;;;;;;;2.95;1.10;;;21.10;97.30;;;;;;5139000;27;20042;-72
2023/08/08 07:52:59;;;;;;;2.97;1.13;;;20.50;97.70;;;;;;5151016;27;20094;-71
2023/08/08 07:55:25;;;;;;;5.70;1.33;;;19.90;98.10;;;;;;5150960;27;20051;-73
2023/08/08 07:57:51;;;;;;;3.20;0.95;;;19.80;99.30;;;;;;5130165;27;20099;-70
2023/08/08 08:00:18;;;;;;;5.00;1.35;;;19.70;99.80;;;;;;5142634;27;20107;-71
2023/08/08 08:02:45;;;;;;;3.08;1.20;;;19.90;98.90;;;;;;5130221;27;20053;-72
2023/08/08 08:05:12;;;;;;;2.47;1.20;;;20.30;98.50;;;;;;5154698;27;20428;-71
2023/08/08 08:07:38;;;;;;;2.15;1.23;;;20.60;99.60;;;;;;5134776;27;20118;-71
2023/08/08 08:10:05;;;;;;;3.15;1.20;;;20.50;99.30;;;;;;5144482;27;20063;-74
2023/08/08 08:12:32;;;;;;;2.45;1.10;;;20.20;99.40;;;;;;5151015;27;20046;-70
2023/08/08 08:14:58;;;;;;;1.95;1.10;;;20.10;99.90;;;;;;5157173;27;20042;-70
2023/08/08 08:17:23;;;;;;;3.35;1.45;;;20.20;99.90;;;;;;5128028;27;20064;-71
2023/08/08 08:19:51;;;;;;;2.63;1.10;;;20.00;98.80;;;;;;5138243;27;20050;-74
2023/08/08 08:22:17;;;;;;;2.33;1.35;;;20.10;99.60;;;;;;5140124;27;20088;-70
2023/08/08 08:24:43;;;;;;;3.55;1.33;;;20.10;99.60;;;;;;5154885;27;20388;-70
2023/08/08 08:27:08;;;;;;;4.88;1.40;;;19.90;99.70;;;;;;5137982;27;20491;-72
2023/08/08 08:29:34;;;;;;;4.80;1.63;;;19.90;99.50;;;;;;5149863;27;20955;-73
2023/08/08 08:32:00;;;;;;;4.55;1.92;;;20.10;99.50;;;;;;5150525;27;20574;-73
2023/08/08 08:34:26;;;;;;;2.78;1.45;;;19.90;99.30;;;;;;5149626;27;20442;-71
2023/08/08 08:36:51;;;;;;;5.10;1.55;;;20.00;99.50;;;;;;5132712;27;20035;-71
2023/08/08 08:39:17;;;;;;;2.20;1.10;;;20.00;99.30;;;;;;5127618;27;20059;-71
2023/08/08 08:41:49;;;;;;;2.97;1.25;;;20.00;99.90;;;;;;5112090;27;20043;-73
2023/08/08 08:44:16;;;;;;;4.95;2.17;;;20.20;99.90;;;;;;5123202;27;20056;-73
2023/08/08 08:46:43;;;;;;;3.58;1.65;;;20.20;99.90;;;;;;5113959;27;20074;-73
2023/08/08 08:49:10;;;;;;;2.63;2.05;;;20.00;99.90;;;;;;5134632;27;20043;-73
2023/08/08 08:51:36;;;;;;;4.22;1.35;;;20.00;99.90;;;;;;5138812;27;20125;-72
2023/08/08 08:54:03;;;;;;;3.88;1.50;;;19.80;99.90;;;;;;5134646;27;20579;-71
2023/08/08 08:56:29;;;;;;;3.63;1.40;;;19.50;99.90;;;;;;5128140;27;20890;-72
2023/08/08 08:58:55;;;;;;;2.97;1.50;;;19.50;99.90;;;;;;5123842;27;20055;-72
2023/08/08 09:01:23;;;;;;;2.60;1.52;;;19.70;99.90;;;;;;5139774;27;20171;-69
2023/08/08 09:03:49;;;;;;;3.45;1.17;;;20.00;99.90;;;;;;5138129;27;20054;-73
2023/08/08 09:06:16;;;;;;;4.03;1.30;;;20.30;99.70;;;;;;5097467;27;20084;-70
2023/08/08 09:08:41;;;;;;;3.15;1.05;;;20.80;99.90;;;;;;5120474;27;20054;-72
2023/08/08 09:11:08;;;;;;;3.85;1.63;;;21.60;99.90;;;;;;5132411;27;20069;-71
2023/08/08 09:13:38;;;;;;;2.05;1.05;;;22.00;99.40;;;;;;5131822;27;20054;-73
2023/08/08 09:16:06;;;;;;;3.15;1.67;;;21.60;97.70;;;;;;5141043;27;20474;-72
2023/08/08 09:18:33;;;;;;;2.72;1.83;;;21.20;99.30;;;;;;5125608;27;20055;-71
2023/08/08 09:20:59;;;;;;;2.63;2.40;;;21.10;99.90;;;;;;5118727;27;20043;-71
2023/08/08 09:23:25;;;;;;;2.95;1.48;;;21.30;99.90;;;;;;5121174;27;20050;-74
2023/08/08 09:25:50;;;;;;;1.40;1.25;;;21.80;99.90;;;;;;5121253;27;20055;-71
2023/08/08 09:28:17;;;;;;;4.55;1.50;;;21.80;99.90;;;;;;5136549;27;20047;-72
2023/08/08 09:30:43;;;;;;;1.95;1.13;;;21.00;99.90;;;;;;5131502;27;20051;-73
2023/08/08 09:33:08;;;;;;;3.05;1.08;;;20.50;99.90;;;;;;5133486;27;20054;-70
2023/08/08 09:35:37;;;;;;;4.30;1.27;;;20.40;99.90;;;;;;5120781;27;20063;-76
2023/08/08 09:38:03;;;;;;;2.70;1.23;;;20.70;99.90;;;;;;5119731;27;20088;-74
2023/08/08 09:40:29;;;;;;;2.50;1.63;;;20.90;99.90;;;;;;5121386;27;20837;-72
2023/08/08 09:42:57;;;;;;;1.98;1.17;;;21.70;99.90;;;;;;5132669;27;20047;-72
2023/08/08 09:45:23;;;;;;;2.03;1.13;;;21.90;99.90;;;;;;5129872;27;20513;-71
2023/08/08 09:47:52;;;;;;;5.43;1.70;;;21.70;99.70;;;;;;5119740;27;20047;-72
2023/08/08 09:50:18;;;;;;;1.50;1.25;;;22.00;99.90;;;;;;5113103;27;20062;-72
2023/08/08 09:52:45;;;;;;;3.47;1.33;;;22.40;99.90;;;;;;5123249;27;20043;-72
2023/08/08 09:55:11;;;;;;;3.08;1.33;;;23.00;99.90;;;;;;5129157;27;20051;-73
2023/08/08 09:57:41;;;;;;;5.30;1.88;;;23.10;99.70;;;;;;5122705;27;20047;-72
2023/08/08 10:00:12;;;;;;;4.60;1.25;;;22.40;99.90;;;;;;5140453;27;20505;-72
2023/08/08 10:02:37;;;;;;;2.83;1.60;;;21.80;99.90;;;;;;5124925;27;20042;-72
2023/08/08 10:05:04;;;;;;;2.58;1.30;;;21.30;99.90;;;;;;5128676;27;20054;-74
2023/08/08 10:07:30;;;;;;;1.70;1.08;;;20.90;99.90;;;;;;5139277;27;20043;-74
2023/08/08 10:09:57;;;;;;;4.25;1.48;;;20.80;99.90;;;;;;5109687;27;20057;-72
2023/08/08 10:12:26;;;;;;;3.10;1.52;;;21.20;99.90;;;;;;5119677;27;20035;-73
2023/08/08 10:14:52;;;;;;;6.72;1.65;;;22.10;99.90;;;;;;5131907;27;20124;-74
2023/08/08 10:17:18;;;;;;;2.88;1.50;;;22.50;99.90;;;;;;5133206;27;20134;-75
2023/08/08 10:19:57;;;;;;;4.45;1.48;;;22.30;99.90;;;;;;5120529;27;20047;-72
2023/08/08 10:22:24;;;;;;;1.95;1.45;;;21.30;99.40;;;;;;5118854;27;20058;-72
2023/08/08 10:24:54;;;;;;;1.90;1.23;;;20.60;99.90;;;;;;5118624;27;20043;-72
2023/08/08 10:27:37;;;;;;;4.95;1.50;;;20.20;99.90;;;;;;5101875;27;20061;-73
2023/08/08 10:30:07;;;;;;;2.35;1.42;;;19.90;99.90;;;;;;5133217;27;20039;-71
2023/08/08 10:32:44;;;;;;;6.15;1.77;;;20.30;99.90;;;;;;5121952;27;20051;-72
2023/08/08 10:35:11;;;;;;;2.72;1.40;;;20.60;99.30;;;;;;5137712;27;20039;-74
2023/08/08 10:37:38;;;;;;;2.97;1.35;;;21.20;99.20;;;;;;5126522;27;20111;-72
2023/08/08 10:40:08;;;;;;;3.03;1.20;;;21.70;98.90;;;;;;5100937;27;20160;-72
2023/08/08 10:42:52;;;;;;;5.97;1.67;;;21.50;98.70;;;;;;5134257;27;20052;-77
2023/08/08 10:45:17;;;;;;;3.30;1.80;;;21.90;98.80;;;;;;5130475;27;20093;-70
2023/08/08 10:47:44;;;;;;;3.00;1.50;;;22.50;98.80;;;;;;5120147;27;20051;-76
2023/08/08 10:50:12;;;;;;;4.18;1.38;;;22.70;98.00;;;;;;5141101;27;20101;-71
2023/08/08 10:52:59;;;;;;;4.53;1.25;;;22.40;97.40;;;;;;5136354;27;20043;-73
2023/08/08 10:55:34;;;;;;;4.35;1.50;;;21.80;96.50;;;;;;5117341;27;20775;-72
2023/08/08 10:58:09;;;;;;;2.90;1.40;;;22.30;97.80;;;;;;5118605;27;20047;-71
2023/08/08 11:00:39;;;;;;;3.25;1.10;;;22.50;95.90;;;;;;5131901;27;20911;-73
2023/08/08 11:03:05;;;;;;;2.10;1.20;;;22.00;94.50;;;;;;5121134;27;20087;-74
2023/08/08 11:05:32;;;;;;;2.35;1.02;;;21.90;95.50;;;;;;5132308;27;20087;-72
2023/08/08 11:07:58;;;;;;;2.33;1.40;;;21.60;95.80;;;;;;5119900;27;20383;-73
2023/08/08 11:10:30;;;;;;;6.22;1.70;;;21.40;95.80;;;;;;5134911;27;20054;-72
2023/08/08 11:13:04;;;;;;;5.13;1.67;;;21.40;96.50;;;;;;5119110;27;20078;-72
2023/08/08 11:15:31;;;;;;;5.38;1.65;;;21.30;96.10;;;;;;5127328;27;20051;-73
2023/08/08 11:17:58;;;;;;;5.18;1.30;;;21.40;96.70;;;;;;5125711;27;20130;-72
2023/08/08 11:20:24;;;;;;;2.35;1.20;;;21.60;96.80;;;;;;5131818;27;20838;-76
2023/08/08 11:22:55;;;;;;;3.63;1.33;;;21.60;96.20;;;;;;5133030;27;20055;-74
2023/08/08 11:25:22;;;;;;;2.22;0.95;;;21.20;95.10;;;;;;5115031;28;20055;-74
2023/08/08 11:27:54;;;;;;;3.90;1.20;;;21.00;95.60;;;;;;5132923;27;20053;-72
2023/08/08 11:30:22;;;;;;;2.45;1.40;;;20.70;95.00;;;;;;5120249;27;20288;-72
2023/08/08 11:32:49;;;;;;;4.60;1.58;;;20.70;95.70;;;;;;5100205;27;20055;-71
2023/08/08 11:35:22;;;;;;;3.55;1.63;;;20.90;95.80;;;;;;5131665;27;20039;-73
2023/08/08 11:37:49;;;;;;;4.30;1.58;;;20.50;95.30;;;;;;5129566;27;20042;-71
2023/08/08 11:40:15;;;;;;;5.72;1.60;;;20.20;95.70;;;;;;5130818;27;20047;-75
2023/08/08 11:42:42;;;;;;;3.10;1.88;;;20.20;96.30;;;;;;5119167;27;20088;-72
2023/08/08 11:45:14;;;;;;;2.25;1.45;;;20.40;96.30;;;;;;5127590;27;20152;-73
2023/08/08 11:47:40;;;;;;;2.90;1.33;;;20.40;96.10;;;;;;5129394;27;20051;-76
2023/08/08 11:50:07;;;;;;;1.88;1.65;;;20.60;96.70;;;;;;5108271;27;20134;-72
2023/08/08 11:52:39;;;;;;;3.75;1.23;;;20.80;96.90;;;;;;5138627;27;20059;-73
2023/08/08 11:55:06;;;;;;;3.97;1.40;;;20.50;95.40;;;;;;5130536;27;20034;-72
2023/08/08 11:57:33;;;;;;;3.92;1.50;;;20.20;96.20;;;;;;5125348;27;20138;-71
2023/08/08 11:59:59;;;;;;;1.92;1.23;;;19.70;95.90;;;;;;5124353;27;20051;-72
2023/08/08 12:02:27;;;;;;;4.60;1.50;;;19.60;96.40;;;;;;5130462;27;20046;-76
2023/08/08 12:04:53;;;;;;;2.72;1.50;;;19.60;96.50;;;;;;5124386;27;20035;-73
2023/08/08 12:07:19;;;;;;;2.17;1.40;;;19.50;97.30;;;;;;5109521;28;20047;-73
2023/08/08 12:09:47;;;;;;;1.77;1.63;;;19.70;97.20;;;;;;5122840;27;20050;-72
2023/08/08 12:12:14;;;;;;;1.25;1.02;;;19.70;96.10;;;;;;5112399;27;20750;-73
2023/08/08 12:14:41;;;;;;;3.35;1.40;;;19.60;96.10;;;;;;5142508;27;20054;-73
2023/08/08 12:17:08;;;;;;;4.00;1.35;;;19.40;95.60;;;;;;5128347;27;20091;-72
2023/08/08 12:19:34;;;;;;;1.95;1.15;;;19.10;95.90;;;;;;5105832;27;20107;-71
2023/08/08 12:22:00;;;;;;;2.63;1.17;;;19.20;96.50;;;;;;5125874;27;20055;-72
2023/08/08 12:24:26;;;;;;;3.33;1.33;;;19.40;96.30;;;;;;5138104;27;20043;-77
2023/08/08 12:26:52;;;;;;;1.10;1.00;;;19.70;96.50;;;;;;5132101;27;21339;-73
2023/08/08 12:29:17;;;;;;;4.05;1.30;;;20.00;96.50;;;;;;5144302;27;20042;-73
2023/08/08 12:31:43;;;;;;;5.35;1.52;;;20.10;96.30;;;;;;5128654;27;20061;-74
2023/08/08 12:34:09;;;;;;;4.43;1.40;;;20.20;96.50;;;;;;5134513;27;20050;-72
2023/08/08 12:36:35;;;;;;;1.70;1.17;;;20.20;96.00;;;;;;5092621;27;20933;-75
2023/08/08 12:39:01;;;;;;;3.20;1.45;;;20.20;95.80;;;;;;5135488;27;20139;-75
2023/08/08 12:41:29;;;;;;;3.90;1.30;;;20.40;96.40;;;;;;5137286;27;20046;-73
2023/08/08 12:43:55;;;;;;;3.85;1.15;;;20.40;96.00;;;;;;5106272;27;20051;-74